Project City, California
Current Conditions -  °F | °C
As of 2:53 PM on Friday 28 Nov 2014 (Local Time) from KRDD Reporting Station
Light Rain Light Rain  
Wind Chill: 52°   Ceiling: 1900
Heat Index: 52°   Visibility: 5mi
Dew Point: 48°   Wind: 3mph
Humidity: 86%   Direction: 120°ESE
Pressure: 29.9"   Gusts: NA
Location:  40.6814°N, 122.35°W
Report Text: KRDD 282253Z 12003KT 5SM -RA BR BKN019 BKN080 OVC120 11/09 A2990 RMK AO2 RAB42 SLP124 P0001 T01110089
Loading
Personal Weather Stations






























Interactive Weather Map New forecast layout! Learn more

10-Day Weather Forecast

Advertisements
Track Severe Weather on mobile